createdAt,value
2023-05-21T00:00:39.604Z,94734.00
2023-05-21T00:01:39.585Z,94731.00
2023-05-21T00:02:39.623Z,94731.00
2023-05-21T00:03:39.583Z,94730.00
2023-05-21T00:04:39.571Z,94732.00
2023-05-21T00:05:39.618Z,94734.00
2023-05-21T00:06:39.610Z,94733.00
2023-05-21T00:07:39.632Z,94736.00
2023-05-21T00:08:39.654Z,94734.00
2023-05-21T00:09:39.664Z,94734.00
2023-05-21T00:10:39.667Z,94734.00
2023-05-21T00:11:39.694Z,94734.00
2023-05-21T00:12:39.701Z,94737.00
2023-05-21T00:13:39.772Z,94736.00
2023-05-21T00:14:39.782Z,94736.00
2023-05-21T00:15:39.754Z,94736.00
2023-05-21T00:16:39.835Z,94731.00
2023-05-21T00:17:39.840Z,94728.00
2023-05-21T00:18:39.830Z,94729.00
2023-05-21T00:19:39.843Z,94730.00
2023-05-21T00:20:39.880Z,94729.00
2023-05-21T00:21:39.869Z,94729.00
2023-05-21T00:22:39.887Z,94732.00
2023-05-21T00:23:39.927Z,94732.00
2023-05-21T00:24:39.944Z,94733.00
2023-05-21T00:25:39.957Z,94730.00
2023-05-21T00:26:39.968Z,94732.00
2023-05-21T00:27:39.968Z,94732.00
2023-05-21T00:28:39.984Z,94730.00
2023-05-21T00:29:40.959Z,94732.00
2023-05-21T00:30:40.031Z,94733.00
2023-05-21T00:31:40.149Z,94734.00
2023-05-21T00:32:40.107Z,94732.00
2023-05-21T00:33:40.085Z,94734.00
2023-05-21T00:34:40.117Z,94737.00
2023-05-21T00:35:40.127Z,94734.00
2023-05-21T00:36:40.157Z,94733.00
2023-05-21T00:37:40.175Z,94732.00
2023-05-21T00:38:40.183Z,94730.00
2023-05-21T00:39:40.196Z,94732.00
2023-05-21T00:40:40.240Z,94730.00
2023-05-21T00:41:42.065Z,94729.00
2023-05-21T00:42:40.254Z,94730.00
2023-05-21T00:43:40.279Z,94727.00
2023-05-21T00:44:40.286Z,94727.00
2023-05-21T00:45:40.552Z,94726.00
2023-05-21T00:46:40.301Z,94726.00
2023-05-21T00:47:40.326Z,94728.00
2023-05-21T00:48:40.352Z,94727.00
2023-05-21T00:49:40.369Z,94732.00
2023-05-21T00:50:40.412Z,94729.00
2023-05-21T00:51:40.433Z,94732.00
2023-05-21T00:52:40.450Z,94731.00
2023-05-21T00:53:40.442Z,94733.00
2023-05-21T00:54:40.526Z,94734.00
2023-05-21T00:55:40.529Z,94731.00
2023-05-21T00:56:40.532Z,94731.00
2023-05-21T00:57:40.546Z,94729.00
2023-05-21T00:58:40.551Z,94728.00
2023-05-21T00:59:40.560Z,94732.00
2023-05-21T01:00:40.666Z,94735.00
2023-05-21T01:01:40.808Z,94737.00
2023-05-21T01:02:40.839Z,94737.00
2023-05-21T01:03:40.708Z,94737.00
2023-05-21T01:04:40.658Z,94733.00
2023-05-21T01:05:40.700Z,94730.00
2023-05-21T01:06:40.710Z,94729.00
2023-05-21T01:07:40.737Z,94729.00
2023-05-21T01:08:40.834Z,94728.00
2023-05-21T01:09:40.772Z,94729.00
2023-05-21T01:10:40.798Z,94726.00
2023-05-21T01:11:40.816Z,94724.00
2023-05-21T01:12:40.824Z,94723.00
2023-05-21T01:13:40.857Z,94724.00
2023-05-21T01:14:40.860Z,94726.00
2023-05-21T01:15:40.897Z,94727.00
2023-05-21T01:16:40.964Z,94726.00
2023-05-21T01:17:40.945Z,94724.00
2023-05-21T01:18:41.109Z,94725.00
2023-05-21T01:19:40.988Z,94720.00
2023-05-21T01:20:41.039Z,94717.00
2023-05-21T01:21:41.018Z,94714.00
2023-05-21T01:22:41.047Z,94714.00
2023-05-21T01:23:41.046Z,94717.00
2023-05-21T01:24:41.068Z,94720.00
2023-05-21T01:25:41.108Z,94717.00
2023-05-21T01:26:41.131Z,94718.00
2023-05-21T01:27:41.169Z,94715.00
2023-05-21T01:28:41.206Z,94717.00
2023-05-21T01:29:41.210Z,94718.00
2023-05-21T01:30:41.261Z,94720.00
2023-05-21T01:31:41.237Z,94720.00
2023-05-21T01:32:41.341Z,94718.00
2023-05-21T01:33:41.343Z,94717.00
2023-05-21T01:34:41.306Z,94717.00
2023-05-21T01:35:41.344Z,94717.00
2023-05-21T01:36:41.362Z,94712.00
2023-05-21T01:37:41.405Z,94710.00
2023-05-21T01:38:41.414Z,94710.00
2023-05-21T01:39:41.472Z,94713.00
2023-05-21T01:40:41.476Z,94713.00
2023-05-21T01:41:41.503Z,94716.00
2023-05-21T01:42:41.529Z,94715.00
2023-05-21T01:43:41.556Z,94711.00
2023-05-21T01:44:41.572Z,94715.00
2023-05-21T01:45:41.606Z,94711.00
2023-05-21T01:46:41.668Z,94711.00
2023-05-21T01:47:41.707Z,94710.00
2023-05-21T01:48:41.715Z,94710.00
2023-05-21T01:49:41.720Z,94706.00
2023-05-21T01:50:41.728Z,94709.00
2023-05-21T01:51:41.758Z,94708.00
2023-05-21T01:52:41.815Z,94709.00
2023-05-21T01:53:41.792Z,94707.00
2023-05-21T01:54:41.873Z,94704.00
2023-05-21T01:55:41.931Z,94701.00
2023-05-21T01:56:41.870Z,94704.00
2023-05-21T01:57:41.885Z,94705.00
2023-05-21T01:58:41.922Z,94704.00
2023-05-21T01:59:41.959Z,94709.00
2023-05-21T02:00:41.971Z,94711.00
2023-05-21T02:01:42.027Z,94714.00
2023-05-21T02:02:42.080Z,94715.00
2023-05-21T02:03:42.150Z,94716.00
2023-05-21T02:04:42.081Z,94712.00
2023-05-21T02:05:42.111Z,94712.00
2023-05-21T02:06:42.133Z,94710.00
2023-05-21T02:07:42.157Z,94709.00
2023-05-21T02:08:42.153Z,94707.00
2023-05-21T02:09:42.195Z,94707.00
2023-05-21T02:10:42.289Z,94714.00
2023-05-21T02:11:42.245Z,94717.00
2023-05-21T02:12:42.270Z,94718.00
2023-05-21T02:13:42.300Z,94718.00
2023-05-21T02:14:42.347Z,94718.00
2023-05-21T02:15:42.378Z,94716.00
2023-05-21T02:16:42.512Z,94717.00
2023-05-21T02:17:42.650Z,94720.00
2023-05-21T02:18:42.473Z,94720.00
2023-05-21T02:19:42.475Z,94721.00
2023-05-21T02:20:42.518Z,94720.00
2023-05-21T02:21:42.494Z,94721.00
2023-05-21T02:22:42.538Z,94722.00
2023-05-21T02:23:42.574Z,94720.00
2023-05-21T02:24:42.588Z,94718.00
2023-05-21T02:25:42.623Z,94718.00
2023-05-21T02:26:42.611Z,94716.00
2023-05-21T02:27:42.657Z,94716.00
2023-05-21T02:28:42.678Z,94717.00
2023-05-21T02:29:42.734Z,94717.00
2023-05-21T02:30:42.800Z,94714.00
2023-05-21T02:31:42.778Z,94713.00
2023-05-21T02:32:43.247Z,94712.00
2023-05-21T02:33:42.890Z,94711.00
2023-05-21T02:34:42.889Z,94711.00
2023-05-21T02:35:42.884Z,94710.00
2023-05-21T02:36:42.931Z,94707.00
2023-05-21T02:37:42.956Z,94708.00
2023-05-21T02:38:42.984Z,94705.00
2023-05-21T02:39:43.001Z,94704.00
2023-05-21T02:40:43.024Z,94703.00
2023-05-21T02:41:43.031Z,94698.00
2023-05-21T02:42:43.082Z,94699.00
2023-05-21T02:43:43.078Z,94698.00
2023-05-21T02:44:43.122Z,94701.00
2023-05-21T02:45:43.200Z,94698.00
2023-05-21T02:46:43.178Z,94697.00
2023-05-21T02:47:43.246Z,94695.00
2023-05-21T02:48:43.225Z,94692.00
2023-05-21T02:49:43.252Z,94691.00
2023-05-21T02:50:43.288Z,94692.00
2023-05-21T02:51:43.313Z,94693.00
2023-05-21T02:52:43.315Z,94691.00
2023-05-21T02:53:43.365Z,94694.00
2023-05-21T02:54:43.397Z,94693.00
2023-05-21T02:55:43.398Z,94700.00
2023-05-21T02:56:43.428Z,94698.00
2023-05-21T02:57:43.447Z,94703.00
2023-05-21T02:58:43.476Z,94700.00
2023-05-21T02:59:43.527Z,94700.00
2023-05-21T03:00:43.577Z,94702.00
2023-05-21T03:01:43.651Z,94705.00
2023-05-21T03:02:43.699Z,94704.00
2023-05-21T03:03:43.682Z,94704.00
2023-05-21T03:04:43.661Z,94705.00
2023-05-21T03:05:43.688Z,94707.00
2023-05-21T03:06:43.749Z,94708.00
2023-05-21T03:07:43.765Z,94709.00
2023-05-21T03:08:43.802Z,94708.00
2023-05-21T03:09:43.801Z,94708.00
2023-05-21T03:10:43.854Z,94705.00
2023-05-21T03:11:43.861Z,94708.00
2023-05-21T03:12:43.867Z,94711.00
2023-05-21T03:13:43.971Z,94713.00
2023-05-21T03:14:43.981Z,94711.00
2023-05-21T03:15:43.967Z,94706.00
2023-05-21T03:16:44.020Z,94707.00
2023-05-21T03:17:44.080Z,94705.00
2023-05-21T03:18:44.064Z,94705.00
2023-05-21T03:19:44.063Z,94707.00
2023-05-21T03:20:44.116Z,94705.00
2023-05-21T03:21:44.159Z,94709.00
2023-05-21T03:22:44.191Z,94714.00
2023-05-21T03:23:44.181Z,94714.00
2023-05-21T03:24:44.234Z,94717.00
2023-05-21T03:25:44.264Z,94714.00
2023-05-21T03:26:44.282Z,94703.00
2023-05-21T03:27:44.304Z,94697.00
2023-05-21T03:28:44.347Z,94697.00
2023-05-21T03:29:44.389Z,94704.00
2023-05-21T03:30:44.430Z,94709.00
2023-05-21T03:31:44.499Z,94713.00
2023-05-21T03:32:44.530Z,94715.00
2023-05-21T03:33:44.527Z,94712.00
2023-05-21T03:34:44.549Z,94714.00
2023-05-21T03:35:44.557Z,94713.00
2023-05-21T03:36:44.619Z,94716.00
2023-05-21T03:37:44.605Z,94718.00
2023-05-21T03:38:44.684Z,94717.00
2023-05-21T03:39:44.706Z,94715.00
2023-05-21T03:40:44.745Z,94713.00
2023-05-21T03:41:44.755Z,94712.00
2023-05-21T03:42:44.801Z,94718.00
2023-05-21T03:43:44.822Z,94724.00
2023-05-21T03:44:44.841Z,94728.00
2023-05-21T03:45:45.058Z,94726.00
2023-05-21T03:46:44.913Z,94721.00
2023-05-21T03:47:44.976Z,94720.00
2023-05-21T03:48:45.024Z,94724.00
2023-05-21T03:49:45.026Z,94726.00
2023-05-21T03:50:45.039Z,94727.00
2023-05-21T03:51:45.054Z,94726.00
2023-05-21T03:52:45.097Z,94719.00
2023-05-21T03:53:45.124Z,94720.00
2023-05-21T03:54:45.137Z,94721.00
2023-05-21T03:55:45.184Z,94723.00
2023-05-21T03:56:45.204Z,94720.00
2023-05-21T03:57:45.244Z,94720.00
2023-05-21T03:58:45.248Z,94719.00
2023-05-21T03:59:45.304Z,94717.00
2023-05-21T04:00:45.340Z,94715.00
2023-05-21T04:01:45.360Z,94718.00
2023-05-21T04:02:45.414Z,94721.00
2023-05-21T04:03:45.623Z,94725.00
2023-05-21T04:04:45.537Z,94724.00
2023-05-21T04:05:45.484Z,94728.00
2023-05-21T04:06:45.478Z,94733.00
2023-05-21T04:07:45.523Z,94732.00
2023-05-21T04:08:45.542Z,94730.00
2023-05-21T04:09:45.587Z,94728.00
2023-05-21T04:10:45.604Z,94726.00
2023-05-21T04:11:45.647Z,94729.00
2023-05-21T04:12:45.703Z,94737.00
2023-05-21T04:13:45.673Z,94745.00
2023-05-21T04:14:45.741Z,94747.00
2023-05-21T04:15:45.743Z,94744.00
2023-05-21T04:16:45.764Z,94737.00
2023-05-21T04:17:45.837Z,94737.00
2023-05-21T04:18:45.877Z,94738.00
2023-05-21T04:19:45.889Z,94745.00
2023-05-21T04:20:46.032Z,94751.00
2023-05-21T04:21:45.919Z,94755.00
2023-05-21T04:22:45.970Z,94755.00
2023-05-21T04:23:45.995Z,94753.00
2023-05-21T04:24:46.004Z,94754.00
2023-05-21T04:25:46.054Z,94754.00
2023-05-21T04:26:46.060Z,94754.00
2023-05-21T04:27:46.097Z,94758.00
2023-05-21T04:28:46.141Z,94754.00
2023-05-21T04:29:46.129Z,94750.00
2023-05-21T04:30:46.190Z,94749.00
2023-05-21T04:31:46.286Z,94752.00
2023-05-21T04:32:46.275Z,94753.00
2023-05-21T04:34:46.311Z,94751.00
2023-05-21T04:35:46.296Z,94749.00
2023-05-21T04:36:46.381Z,94748.00
2023-05-21T04:37:46.358Z,94747.00
2023-05-21T04:38:46.418Z,94745.00
2023-05-21T04:39:46.406Z,94744.00
2023-05-21T04:40:46.473Z,94745.00
2023-05-21T04:41:46.478Z,94749.00
2023-05-21T04:42:46.551Z,94746.00
2023-05-21T04:43:46.547Z,94747.00
2023-05-21T04:44:46.585Z,94744.00
2023-05-21T04:45:46.605Z,94740.00
2023-05-21T04:46:46.677Z,94740.00
2023-05-21T04:47:46.695Z,94740.00
2023-05-21T04:48:46.677Z,94740.00
2023-05-21T04:49:46.725Z,94742.00
2023-05-21T04:50:47.125Z,94741.00
2023-05-21T04:51:46.802Z,94743.00
2023-05-21T04:52:46.816Z,94741.00
2023-05-21T04:53:46.855Z,94742.00
2023-05-21T04:54:46.880Z,94740.00
2023-05-21T04:55:46.916Z,94737.00
2023-05-21T04:56:46.905Z,94736.00
2023-05-21T04:57:46.953Z,94735.00
2023-05-21T04:58:46.962Z,94736.00
2023-05-21T04:59:47.005Z,94734.00
2023-05-21T05:00:47.360Z,94735.00
2023-05-21T05:01:47.068Z,94737.00
2023-05-21T05:02:47.173Z,94740.00
2023-05-21T05:03:47.207Z,94739.00
2023-05-21T05:04:47.137Z,94741.00
2023-05-21T05:05:47.171Z,94740.00
2023-05-21T05:06:47.227Z,94738.00
2023-05-21T05:07:47.211Z,94736.00
2023-05-21T05:08:47.249Z,94734.00
2023-05-21T05:09:47.289Z,94731.00
2023-05-21T05:10:47.303Z,94733.00
2023-05-21T05:11:47.357Z,94732.00
2023-05-21T05:12:47.369Z,94731.00
2023-05-21T05:13:47.393Z,94731.00
2023-05-21T05:14:47.463Z,94728.00
2023-05-21T05:15:49.642Z,94728.00
2023-05-21T05:16:47.546Z,94726.00
2023-05-21T05:17:47.462Z,94726.00
2023-05-21T05:18:47.434Z,94729.00
2023-05-21T05:19:47.404Z,94732.00
2023-05-21T05:20:47.418Z,94732.00
2023-05-21T05:21:47.405Z,94727.00
2023-05-21T05:22:47.419Z,94725.00
2023-05-21T05:23:47.378Z,94724.00
2023-05-21T05:24:47.451Z,94723.00
2023-05-21T05:25:47.367Z,94726.00
2023-05-21T05:26:47.380Z,94726.00
2023-05-21T05:27:47.372Z,94725.00
2023-05-21T05:28:47.357Z,94727.00
2023-05-21T05:29:47.371Z,94728.00
2023-05-21T05:30:47.347Z,94724.00
2023-05-21T05:31:47.314Z,94726.00
2023-05-21T05:32:47.347Z,94727.00
2023-05-21T05:33:47.327Z,94726.00
2023-05-21T05:34:47.301Z,94726.00
2023-05-21T05:35:47.319Z,94726.00
2023-05-21T05:36:47.298Z,94727.00
2023-05-21T05:37:47.304Z,94725.00
2023-05-21T05:38:47.330Z,94725.00
2023-05-21T05:39:47.297Z,94723.00
2023-05-21T05:40:47.274Z,94721.00
2023-05-21T05:41:47.255Z,94719.00
2023-05-21T05:42:47.270Z,94718.00
2023-05-21T05:43:47.263Z,94717.00
2023-05-21T05:44:47.295Z,94715.00
2023-05-21T05:45:47.362Z,94717.00
2023-05-21T05:46:47.281Z,94715.00
2023-05-21T05:47:47.258Z,94717.00
2023-05-21T05:48:47.219Z,94720.00
2023-05-21T05:49:47.226Z,94719.00
2023-05-21T05:50:47.196Z,94720.00
2023-05-21T05:51:47.207Z,94719.00
2023-05-21T05:52:47.185Z,94722.00
2023-05-21T05:53:47.192Z,94723.00
2023-05-21T05:54:47.197Z,94721.00
2023-05-21T05:55:47.171Z,94718.00
2023-05-21T05:56:47.143Z,94719.00
2023-05-21T05:57:47.173Z,94717.00
2023-05-21T05:58:47.148Z,94721.00
2023-05-21T05:59:47.133Z,94723.00
2023-05-21T06:00:47.186Z,94723.00
2023-05-21T06:01:47.146Z,94724.00
2023-05-21T06:02:47.156Z,94722.00
2023-05-21T06:03:47.328Z,94721.00
2023-05-21T06:04:47.106Z,94719.00
2023-05-21T06:05:47.118Z,94720.00
2023-05-21T06:06:47.074Z,94722.00
2023-05-21T06:07:47.089Z,94724.00
2023-05-21T06:08:47.076Z,94726.00
2023-05-21T06:09:47.053Z,94724.00
2023-05-21T06:10:47.076Z,94722.00
2023-05-21T06:11:47.062Z,94722.00
2023-05-21T06:12:47.055Z,94721.00
2023-05-21T06:13:47.071Z,94716.00
2023-05-21T06:14:47.047Z,94714.00
2023-05-21T06:15:47.084Z,94711.00
2023-05-21T06:16:47.048Z,94713.00
2023-05-21T06:17:47.054Z,94714.00
2023-05-21T06:18:47.031Z,94718.00
2023-05-21T06:19:46.995Z,94716.00
2023-05-21T06:20:47.000Z,94715.00
2023-05-21T06:21:47.000Z,94713.00
2023-05-21T06:22:46.969Z,94709.00
2023-05-21T06:23:46.996Z,94706.00
2023-05-21T06:24:46.945Z,94702.00
2023-05-21T06:25:46.985Z,94702.00
2023-05-21T06:26:46.946Z,94703.00
2023-05-21T06:27:46.951Z,94701.00
2023-05-21T06:28:46.926Z,94702.00
2023-05-21T06:29:46.909Z,94704.00
2023-05-21T06:30:46.931Z,94703.00
2023-05-21T06:31:46.871Z,94700.00
2023-05-21T06:32:46.960Z,94699.00
2023-05-21T06:33:47.089Z,94696.00
2023-05-21T06:34:46.941Z,94693.00
2023-05-21T06:35:46.978Z,94693.00
2023-05-21T06:36:47.024Z,94691.00
2023-05-21T06:37:47.004Z,94692.00
2023-05-21T06:38:47.027Z,94695.00
2023-05-21T06:39:47.052Z,94694.00
2023-05-21T06:40:47.058Z,94693.00
2023-05-21T06:41:47.064Z,94694.00
2023-05-21T06:42:47.173Z,94692.00
2023-05-21T06:43:47.162Z,94691.00
2023-05-21T06:44:47.099Z,94692.00
2023-05-21T06:45:47.188Z,94691.00
2023-05-21T06:46:47.125Z,94690.00
2023-05-21T06:47:47.200Z,94690.00
2023-05-21T06:48:47.184Z,94691.00
2023-05-21T06:49:47.231Z,94692.00
2023-05-21T06:50:47.210Z,94696.00
2023-05-21T06:51:47.249Z,94697.00
2023-05-21T06:52:48.175Z,94697.00
2023-05-21T06:53:47.289Z,94696.00
2023-05-21T06:54:47.303Z,94696.00
2023-05-21T06:55:47.305Z,94698.00
2023-05-21T06:56:47.330Z,94697.00
2023-05-21T06:57:47.338Z,94701.00
2023-05-21T06:58:47.350Z,94701.00
2023-05-21T06:59:47.339Z,94702.00
2023-05-21T07:00:47.412Z,94702.00
2023-05-21T07:01:47.499Z,94701.00
2023-05-21T07:02:47.549Z,94701.00
2023-05-21T07:03:47.446Z,94703.00
2023-05-21T07:04:47.470Z,94703.00
2023-05-21T07:05:47.471Z,94700.00
2023-05-21T07:06:47.499Z,94699.00
2023-05-21T07:07:47.505Z,94696.00
2023-05-21T07:08:47.525Z,94698.00
2023-05-21T07:09:47.551Z,94696.00
2023-05-21T07:10:47.615Z,94693.00
2023-05-21T07:11:47.582Z,94694.00
2023-05-21T07:12:47.596Z,94691.00
2023-05-21T07:13:47.590Z,94690.00
2023-05-21T07:14:47.632Z,94689.00
2023-05-21T07:15:47.664Z,94690.00
2023-05-21T07:16:47.752Z,94690.00
2023-05-21T07:17:47.699Z,94690.00
2023-05-21T07:18:47.682Z,94690.00
2023-05-21T07:19:47.714Z,94686.00
2023-05-21T07:20:47.718Z,94686.00
2023-05-21T07:21:47.723Z,94683.00
2023-05-21T07:22:47.728Z,94681.00
2023-05-21T07:23:47.756Z,94681.00
2023-05-21T07:24:47.758Z,94678.00
2023-05-21T07:25:47.760Z,94678.00
2023-05-21T07:26:47.824Z,94674.00
2023-05-21T07:27:47.786Z,94672.00
2023-05-21T07:28:47.834Z,94671.00
2023-05-21T07:29:47.821Z,94667.00
2023-05-21T07:30:47.859Z,94667.00
2023-05-21T07:31:47.850Z,94665.00
2023-05-21T07:32:47.922Z,94664.00
2023-05-21T07:33:47.841Z,94668.00
2023-05-21T07:34:47.843Z,94666.00
2023-05-21T07:35:47.872Z,94666.00
2023-05-21T07:36:47.864Z,94668.00
2023-05-21T07:37:47.953Z,94664.00
2023-05-21T07:38:47.875Z,94665.00
2023-05-21T07:39:47.917Z,94662.00
2023-05-21T07:40:47.891Z,94663.00
2023-05-21T07:41:47.928Z,94658.00
2023-05-21T07:42:47.937Z,94657.00
2023-05-21T07:43:47.970Z,94655.00
2023-05-21T07:44:47.936Z,94657.00
2023-05-21T07:45:47.968Z,94657.00
2023-05-21T07:46:48.025Z,94657.00
2023-05-21T07:47:48.008Z,94658.00
2023-05-21T07:48:47.965Z,94657.00
2023-05-21T07:49:47.980Z,94659.00
2023-05-21T07:50:47.995Z,94660.00
2023-05-21T07:51:48.032Z,94659.00
2023-05-21T07:52:48.003Z,94656.00
2023-05-21T07:53:48.019Z,94654.00
2023-05-21T07:54:48.017Z,94653.00
2023-05-21T07:55:48.100Z,94648.00
2023-05-21T07:56:48.043Z,94645.00
2023-05-21T07:57:48.036Z,94642.00
2023-05-21T07:58:48.052Z,94641.00
2023-05-21T07:59:48.031Z,94640.00
2023-05-21T08:00:48.033Z,94639.00
2023-05-21T08:01:48.082Z,94642.00
2023-05-21T08:02:48.116Z,94643.00
2023-05-21T08:03:48.230Z,94643.00
2023-05-21T08:04:48.200Z,94644.00
2023-05-21T08:05:48.112Z,94644.00
2023-05-21T08:06:48.129Z,94643.00
2023-05-21T08:07:48.115Z,94641.00
2023-05-21T08:08:48.118Z,94640.00
2023-05-21T08:09:48.147Z,94638.00
2023-05-21T08:10:48.179Z,94638.00
2023-05-21T08:11:48.204Z,94638.00
2023-05-21T08:12:48.190Z,94636.00
2023-05-21T08:13:48.209Z,94637.00
2023-05-21T08:14:48.194Z,94637.00
2023-05-21T08:15:49.084Z,94636.00
2023-05-21T08:16:48.427Z,94635.00
2023-05-21T08:17:48.258Z,94636.00
2023-05-21T08:18:48.300Z,94634.00
2023-05-21T08:19:48.242Z,94634.00
2023-05-21T08:20:48.304Z,94633.00
2023-05-21T08:21:49.262Z,94633.00
2023-05-21T08:22:48.332Z,94630.00
2023-05-21T08:23:48.311Z,94635.00
2023-05-21T08:24:48.329Z,94631.00
2023-05-21T08:25:48.350Z,94632.00
2023-05-21T08:26:48.352Z,94631.00
2023-05-21T08:27:49.927Z,94629.00
2023-05-21T08:28:48.387Z,94627.00
2023-05-21T08:29:48.382Z,94627.00
2023-05-21T08:30:48.394Z,94627.00
2023-05-21T08:31:48.412Z,94624.00
2023-05-21T08:32:48.414Z,94623.00
2023-05-21T08:33:48.372Z,94621.00
2023-05-21T08:34:48.356Z,94619.00
2023-05-21T08:35:48.326Z,94619.00
2023-05-21T08:36:48.328Z,94617.00
2023-05-21T08:37:48.296Z,94618.00
2023-05-21T08:38:48.335Z,94615.00
2023-05-21T08:39:48.323Z,94615.00
2023-05-21T08:40:48.304Z,94614.00
2023-05-21T08:41:48.317Z,94612.00
2023-05-21T08:42:48.278Z,94605.00
2023-05-21T08:43:49.983Z,94606.00
2023-05-21T08:44:48.277Z,94605.00
2023-05-21T08:45:48.260Z,94604.00
2023-05-21T08:46:48.282Z,94605.00
2023-05-21T08:47:48.352Z,94604.00
2023-05-21T08:48:48.397Z,94604.00
2023-05-21T08:49:48.422Z,94604.00
2023-05-21T08:50:48.469Z,94605.00
2023-05-21T08:51:48.526Z,94601.00
2023-05-21T08:52:48.612Z,94603.00
2023-05-21T08:53:48.566Z,94602.00
2023-05-21T08:54:48.601Z,94602.00
2023-05-21T08:55:50.196Z,94600.00
2023-05-21T08:56:48.631Z,94599.00
2023-05-21T08:57:48.619Z,94600.00
2023-05-21T08:58:48.597Z,94599.00
2023-05-21T08:59:48.596Z,94604.00
2023-05-21T09:00:48.645Z,94600.00
2023-05-21T09:01:48.733Z,94599.00
2023-05-21T09:02:48.648Z,94596.00
2023-05-21T09:03:48.595Z,94594.00
2023-05-21T09:04:48.606Z,94595.00
2023-05-21T09:05:48.565Z,94592.00
2023-05-21T09:06:48.584Z,94590.00
2023-05-21T09:07:49.754Z,94590.00
2023-05-21T09:08:48.585Z,94587.00
2023-05-21T09:09:48.647Z,94586.00
2023-05-21T09:10:48.681Z,94584.00
2023-05-21T09:11:48.722Z,94586.00
2023-05-21T09:12:48.831Z,94586.00
2023-05-21T09:13:48.823Z,94591.00
2023-05-21T09:14:48.858Z,94597.00
2023-05-21T09:15:48.953Z,94600.00
2023-05-21T09:16:49.019Z,94599.00
2023-05-21T09:17:49.060Z,94602.00
2023-05-21T09:18:49.115Z,94607.00
2023-05-21T09:19:49.083Z,94595.00
2023-05-21T09:20:49.130Z,94593.00
2023-05-21T09:21:49.152Z,94590.00
2023-05-21T09:22:49.228Z,94597.00
2023-05-21T09:23:49.251Z,94608.00
2023-05-21T09:24:49.312Z,94607.00
2023-05-21T09:25:49.348Z,94604.00
2023-05-21T09:26:49.337Z,94605.00
2023-05-21T09:27:49.396Z,94604.00
2023-05-21T09:28:49.463Z,94606.00
2023-05-21T09:29:49.493Z,94606.00
2023-05-21T09:30:49.569Z,94605.00
2023-05-21T09:31:49.681Z,94608.00
2023-05-21T09:32:49.692Z,94609.00
2023-05-21T09:33:49.659Z,94609.00
2023-05-21T09:34:49.704Z,94606.00
2023-05-21T09:35:49.785Z,94606.00
2023-05-21T09:36:49.802Z,94617.00
2023-05-21T09:37:49.879Z,94616.00
2023-05-21T09:38:49.929Z,94613.00
2023-05-21T09:39:49.983Z,94609.00
2023-05-21T09:40:50.046Z,94604.00
2023-05-21T09:41:50.116Z,94613.00
2023-05-21T09:42:50.140Z,94616.00
2023-05-21T09:43:50.198Z,94610.00
2023-05-21T09:44:50.284Z,94611.00
2023-05-21T09:45:50.352Z,94615.00
2023-05-21T09:46:50.449Z,94608.00
2023-05-21T09:47:50.503Z,94612.00
2023-05-21T09:48:50.519Z,94602.00
2023-05-21T09:49:50.573Z,94600.00
2023-05-21T09:50:50.614Z,94604.00
2023-05-21T09:51:50.682Z,94600.00
2023-05-21T09:52:50.733Z,94603.00
2023-05-21T09:53:50.780Z,94605.00
2023-05-21T09:54:50.815Z,94605.00
2023-05-21T09:55:50.893Z,94617.00
2023-05-21T09:56:50.914Z,94610.00
2023-05-21T09:57:51.166Z,94608.00
2023-05-21T09:58:51.025Z,94620.00
2023-05-21T09:59:51.110Z,94611.00
2023-05-21T10:00:51.132Z,94612.00
2023-05-21T10:01:51.298Z,94610.00
2023-05-21T10:02:51.273Z,94612.00
2023-05-21T10:03:51.310Z,94610.00
2023-05-21T10:04:51.399Z,94617.00
2023-05-21T10:05:51.381Z,94611.00
2023-05-21T10:06:51.413Z,94615.00
2023-05-21T10:07:51.516Z,94610.00
2023-05-21T10:08:51.545Z,94613.00
2023-05-21T10:09:51.569Z,94618.00
2023-05-21T10:10:51.622Z,94610.00
2023-05-21T10:11:51.699Z,94610.00
2023-05-21T10:12:51.793Z,94610.00
2023-05-21T10:13:51.784Z,94606.00
2023-05-21T10:14:51.832Z,94610.00
2023-05-21T10:15:51.909Z,94611.00
2023-05-21T10:16:52.039Z,94605.00
2023-05-21T10:17:52.021Z,94609.00
2023-05-21T10:18:52.076Z,94609.00
2023-05-21T10:19:52.102Z,94602.00
2023-05-21T10:20:52.149Z,94602.00
2023-05-21T10:21:52.810Z,94607.00
2023-05-21T10:22:52.222Z,94612.00
2023-05-21T10:23:52.264Z,94606.00
2023-05-21T10:24:52.324Z,94605.00
2023-05-21T10:25:52.360Z,94597.00
2023-05-21T10:26:52.399Z,94600.00
2023-05-21T10:27:52.461Z,94601.00
2023-05-21T10:28:52.502Z,94597.00
2023-05-21T10:29:52.561Z,94592.00
2023-05-21T10:30:52.568Z,94592.00
2023-05-21T10:31:52.703Z,94594.00
2023-05-21T10:32:52.778Z,94599.00
2023-05-21T10:33:52.697Z,94591.00
2023-05-21T10:34:52.728Z,94587.00
2023-05-21T10:35:53.385Z,94586.00
2023-05-21T10:36:52.866Z,94585.00
2023-05-21T10:37:52.887Z,94589.00
2023-05-21T10:38:52.926Z,94587.00
2023-05-21T10:39:52.971Z,94587.00
2023-05-21T10:40:53.038Z,94585.00
2023-05-21T10:41:54.412Z,94581.00
2023-05-21T10:42:53.088Z,94578.00
2023-05-21T10:43:53.138Z,94575.00
2023-05-21T10:44:53.170Z,94581.00
2023-05-21T10:45:53.231Z,94576.00
2023-05-21T10:46:53.262Z,94573.00
2023-05-21T10:47:54.499Z,94579.00
2023-05-21T10:48:53.327Z,94573.00
2023-05-21T10:49:53.386Z,94574.00
2023-05-21T10:50:53.390Z,94571.00
2023-05-21T10:51:53.420Z,94571.00
2023-05-21T10:52:53.471Z,94567.00
2023-05-21T10:53:53.495Z,94565.00
2023-05-21T10:54:53.546Z,94569.00
2023-05-21T10:55:53.567Z,94565.00
2023-05-21T10:56:53.606Z,94573.00
2023-05-21T10:57:53.637Z,94563.00
2023-05-21T10:58:53.701Z,94567.00
2023-05-21T10:59:53.722Z,94563.00
2023-05-21T11:00:53.807Z,94564.00
2023-05-21T11:01:53.810Z,94565.00
2023-05-21T11:02:53.944Z,94567.00
2023-05-21T11:03:53.929Z,94563.00
2023-05-21T11:04:53.929Z,94561.00
2023-05-21T11:05:53.997Z,94562.00
2023-05-21T11:06:54.021Z,94560.00
2023-05-21T11:07:54.047Z,94560.00
2023-05-21T11:08:55.288Z,94559.00
2023-05-21T11:09:54.139Z,94563.00
2023-05-21T11:10:54.157Z,94562.00
2023-05-21T11:11:54.194Z,94566.00
2023-05-21T11:12:54.250Z,94558.00
2023-05-21T11:13:54.288Z,94556.00
2023-05-21T11:14:54.344Z,94559.00
2023-05-21T11:15:54.353Z,94560.00
2023-05-21T11:16:54.427Z,94557.00
2023-05-21T11:17:54.442Z,94562.00
2023-05-21T11:18:54.496Z,94560.00
2023-05-21T11:19:54.488Z,94559.00
2023-05-21T11:20:54.524Z,94559.00
2023-05-21T11:21:54.566Z,94560.00
2023-05-21T11:22:54.582Z,94557.00
2023-05-21T11:23:54.610Z,94565.00
2023-05-21T11:24:54.650Z,94563.00
2023-05-21T11:25:54.692Z,94557.00
2023-05-21T11:26:54.758Z,94551.00
2023-05-21T11:27:54.758Z,94556.00
2023-05-21T11:28:54.799Z,94552.00
2023-05-21T11:29:54.799Z,94560.00
2023-05-21T11:30:54.854Z,94554.00
2023-05-21T11:31:54.897Z,94549.00
2023-05-21T11:32:54.959Z,94554.00
2023-05-21T11:33:54.938Z,94552.00
2023-05-21T11:34:54.965Z,94552.00
2023-05-21T11:35:54.993Z,94546.00
2023-05-21T11:36:55.045Z,94550.00
2023-05-21T11:37:55.068Z,94550.00
2023-05-21T11:38:55.093Z,94547.00
2023-05-21T11:39:55.117Z,94543.00
2023-05-21T11:40:55.574Z,94542.00
2023-05-21T11:41:55.189Z,94541.00
2023-05-21T11:42:55.246Z,94550.00
2023-05-21T11:43:55.232Z,94544.00
2023-05-21T11:44:55.278Z,94545.00
2023-05-21T11:45:55.317Z,94546.00